Baltica — SNGH — position and weather

sailwx.info

Track history (hours):
 
Tides and Currents Weather Stations Pressure Air Temp Water Temp Dewpoint Dewpoint Depression Visibility Wind Speed Wind Dir Waves Ship Positions

Oceanographic research ship Baltica (Poland)

Detailed information on ship capabilities available from University of Delaware's Ocean Information Center.

Last reported at 2019-Jun-19 21:00 UTC. Time now 2019-Jun-19 21:05 UTC.
Position N 55°38' E 015°30'.

Length 41 m; beam 9 m.

Type: Fishing. MMSI: 261061000.

Date/timePositionNaut miles runAvg speedWind from/ knotsBaromVisibWave heightAir tempDewpointWater temp
2019-Jun-19 21:00N 55°38' E 015°30'0 0.6
2019-Jun-19 20:30N 55°37' E 015°31'4 8.1
2019-Jun-19 20:00N 55°38' E 015°38'4 8.0
2019-Jun-19 19:30N 55°38' E 015°45'0 0.3
2019-Jun-19 19:01N 55°38' E 015°45'2 3.2
2019-Jun-19 18:30N 55°38' E 015°48'4 7.5
2019-Jun-19 18:00N 55°38' E 015°54'4 7.4
2019-Jun-19 17:30N 55°38' E 016°01'0 0.6
2019-Jun-19 17:00N 55°38' E 016°00'0 0.7
2019-Jun-19 16:31N 55°37' E 016°00'3 6.8
2019-Jun-19 16:00N 55°41' E 016°00'4 7.2
2019-Jun-19 15:30N 55°44' E 016°00'3 5.7
2019-Jun-19 15:00N 55°47' E 016°00'0 0.4
2019-Jun-19 14:30N 55°47' E 016°00'4 7.3
2019-Jun-19 14:00N 55°47' E 016°07'4 7.4
2019-Jun-19 13:31N 55°47' E 016°13'1 1.9
2019-Jun-19 13:00N 55°48' E 016°15'0 0.9
2019-Jun-19 12:30N 55°47' E 016°16'4 7.4
2019-Jun-19 12:00N 55°48' E 016°22'4 7.5
2019-Jun-19 11:30N 55°48' E 016°29'1 1.1
2019-Jun-19 11:01N 55°48' E 016°30'1 1.0
2019-Jun-19 10:30N 55°47' E 016°30'4 7.4
2019-Jun-19 10:00N 55°43' E 016°30'4 7.4
2019-Jun-19 09:30N 55°40' E 016°30'2 4.4
2019-Jun-19 09:01N 55°38' E 016°30'1 1.6
2019-Jun-19 08:30N 55°37' E 016°29'4 7.9
2019-Jun-19 08:00N 55°37' E 016°22'3 6.1
2019-Jun-19 07:30N 55°37' E 016°16'1 1.6
2019-Jun-19 07:00N 55°38' E 016°15'3 6.3
2019-Jun-19 06:30N 55°34' E 016°16'4 7.9
2019-Jun-19 06:00N 55°30' E 016°16'4 7.5
2019-Jun-19 05:30N 55°27' E 016°17'1 2.8
2019-Jun-19 05:00N 55°28' E 016°15'1 1.3
2019-Jun-19 04:30N 55°27' E 016°16'4 7.4
2019-Jun-19 04:00N 55°27' E 016°23'3 6.7
2019-Jun-19 03:30N 55°27' E 016°29'1 1.6
2019-Jun-19 03:00N 55°28' E 016°30'6 6.0
2019-Jun-19 02:00N 55°22' E 016°30'4 7.6
2019-Jun-19 01:30N 55°18' E 016°30'1 2.3
2019-Jun-19 01:00N 55°17' E 016°30'0 0.7
2019-Jun-19 00:31N 55°17' E 016°30'3 6.8
2019-Jun-19 00:00N 55°16' E 016°36'4 7.6
2019-Jun-18 23:30N 55°15' E 016°42'4 7.2
2019-Jun-18 22:59N 55°13' E 016°48'0 0.9
2019-Jun-18 22:30N 55°14' E 016°48'0 0.5
2019-Jun-18 22:00N 55°14' E 016°48'4 5.2
2019-Jun-18 21:15N 55°14' E 016°55'3 4.3
2019-Jun-18 20:33N 55°14' E 017°00'0 0.7
2019-Jun-18 20:18N 55°14' E 016°60'0 0.0
2019-Jun-18 19:25N 55°14' E 016°60'6 5.3
2019-Jun-18 18:16N 55°14' E 017°10'2 7.9
2019-Jun-18 18:00N 55°14' E 017°14'3 6.3
2019-Jun-18 17:30N 55°14' E 017°20'0 0.4
2019-Jun-18 17:00N 55°14' E 017°20'2 4.9
2019-Jun-18 16:30N 55°14' E 017°24'4 7.5
2019-Jun-18 16:01N 55°15' E 017°31'2 4.7
2019-Jun-18 15:30N 55°15' E 017°35'0 0.8
2019-Jun-18 15:01N 55°15' E 017°35'3 6.3
2019-Jun-18 14:30N 55°17' E 017°39'2 3.1
2019-Jun-18 13:59N 55°19' E 017°40'0 0.9
2019-Jun-18 13:30N 55°19' E 017°41'5 7.2
2019-Jun-18 12:49N 55°19' E 017°50'4 7.4
2019-Jun-18 12:20N 55°20' E 017°56'2 6.3
2019-Jun-18 12:00N 55°20' E 017°59'0 0.6
2019-Jun-18 11:29N 55°20' E 017°60'22 3.7
2019-Jun-18 05:41N 55°36' E 018°25'1 3.3
2019-Jun-18 05:30N 55°36' E 018°26'3 1.6
2019-Jun-18 03:32N 55°34' E 018°30'0 7.8
2019-Jun-18 03:30N 55°34' E 018°30'20 4.6
2019-Jun-17 23:11N 55°15' E 018°40'1 7.4
2019-Jun-17 23:00N 55°14' E 018°40'3 6.8
2019-Jun-17 22:30N 55°10' E 018°40'0 0.3
2019-Jun-17 21:44N 55°10' E 018°40'0 0.6
2019-Jun-17 21:37N 55°10' E 018°40'1 4.8
2019-Jun-17 21:21N 55°10' E 018°42'3 7.4
2019-Jun-17 21:00N 55°09' E 018°47'4 7.4
2019-Jun-17 20:30N 55°08' E 018°53'7 7.4
2019-Jun-17 19:35N 55°07' E 019°04'40 2.0
2019-Jun-16 23:23N 54°31' E 018°33'0 0.0
2019-Jun-16 22:58N 54°31' E 018°33'0 0.0
2019-Jun-16 22:28N 54°31' E 018°33'0 0.0
2019-Jun-16 21:58N 54°31' E 018°33'0 0.0
2019-Jun-16 21:28N 54°31' E 018°33'0 0.0
2019-Jun-16 21:00N 54°31' E 018°33'0 0.0
2019-Jun-16 20:30N 54°31' E 018°33'0 0.0
2019-Jun-16 20:00N 54°31' E 018°33'0 0.0
2019-Jun-16 19:30N 54°31' E 018°33'0 0.0
2019-Jun-16 19:00N 54°31' E 018°33'0 0.0
2019-Jun-16 18:26N 54°31' E 018°33'0 0.0
2019-Jun-16 17:59N 54°31' E 018°33'0 0.0
2019-Jun-16 17:29N 54°31' E 018°33'0 0.0
2019-Jun-16 16:59N 54°31' E 018°33'0 0.0
2019-Jun-16 16:29N 54°31' E 018°33'0 0.1
2019-Jun-16 15:58N 54°31' E 018°33'0 0.1
2019-Jun-16 15:28N 54°31' E 018°33'0 0.0
2019-Jun-16 14:58N 54°31' E 018°33'0 0.0
2019-Jun-16 14:28N 54°31' E 018°33'0 0.0
2019-Jun-16 13:57N 54°31' E 018°33'0 0.0
2019-Jun-16 13:27N 54°31' E 018°33'0 0.0
2019-Jun-16 12:57N 54°31' E 018°33'0 0.0
2019-Jun-16 12:27N 54°31' E 018°33'0 0.0
2019-Jun-16 11:57N 54°31' E 018°33'0 0.0
2019-Jun-16 11:29N 54°31' E 018°33'0 0.0
2019-Jun-16 10:59N 54°31' E 018°33'0 0.0
2019-Jun-16 10:26N 54°31' E 018°33'0 0.0
2019-Jun-16 09:59N 54°31' E 018°33'0 0.0
2019-Jun-16 09:26N 54°31' E 018°33'0 0.1
2019-Jun-16 08:59N 54°31' E 018°33'0 0.1
2019-Jun-16 08:28N 54°31' E 018°33'0 0.0
2019-Jun-16 07:55N 54°31' E 018°33'0 0.0
2019-Jun-16 07:25N 54°31' E 018°33'0 0.1
2019-Jun-16 06:58N 54°31' E 018°33'0 0.1
2019-Jun-16 06:30N 54°31' E 018°33'0 0.0
2019-Jun-16 06:00N 54°31' E 018°33'0 0.0
2019-Jun-16 05:30N 54°31' E 018°33'0 0.0
2019-Jun-16 05:00N 54°31' E 018°33'0 0.0
2019-Jun-16 04:30N 54°31' E 018°33'0 0.0
2019-Jun-16 03:59N 54°31' E 018°33'0 0.0
2019-Jun-16 03:29N 54°31' E 018°33'0 0.0
2019-Jun-16 02:59N 54°31' E 018°33'0 0.0
2019-Jun-16 02:26N 54°31' E 018°33'0 0.0
2019-Jun-16 01:59N 54°31' E 018°33'0 0.0
2019-Jun-16 01:28N 54°31' E 018°33'0 0.0
2019-Jun-16 00:58N 54°31' E 018°33'0 0.0
2019-Jun-16 00:28N 54°31' E 018°33'0 0.0
2019-Jun-15 23:58N 54°31' E 018°33'0 0.0
2019-Jun-15 23:30N 54°31' E 018°33'0 0.0
2019-Jun-15 23:00N 54°31' E 018°33'0 0.0
2019-Jun-15 22:30N 54°31' E 018°33'0 0.0
2019-Jun-15 22:00N 54°31' E 018°33'0 0.0
2019-Jun-15 21:27N 54°31' E 018°33'0 0.0
2019-Jun-15 20:59N 54°31' E 018°33'0 0.1
2019-Jun-15 20:29N 54°31' E 018°33'0 0.1
2019-Jun-15 19:59N 54°31' E 018°33'0 0.0
2019-Jun-15 19:26N 54°31' E 018°33'0 0.0
2019-Jun-15 18:59N 54°31' E 018°33'0 0.0
2019-Jun-15 18:28N 54°31' E 018°33'0 0.0
2019-Jun-15 17:52N 54°31' E 018°33'0 0.0
2019-Jun-15 17:28N 54°31' E 018°33'0 0.0
2019-Jun-15 16:58N 54°31' E 018°33'0 0.0
2019-Jun-15 16:30N 54°31' E 018°33'0 0.0
2019-Jun-15 16:00N 54°31' E 018°33'0 0.0
2019-Jun-15 15:30N 54°31' E 018°33'0 0.0
2019-Jun-15 15:00N 54°31' E 018°33'0 0.0
2019-Jun-15 14:30N 54°31' E 018°33'0 0.0
2019-Jun-15 13:59N 54°31' E 018°33'0 0.0
2019-Jun-15 13:29N 54°31' E 018°33'0 0.0
2019-Jun-15 12:59N 54°31' E 018°33'0 0.0
2019-Jun-15 12:29N 54°31' E 018°33'0 0.0
2019-Jun-15 11:58N 54°31' E 018°33'0 0.0
2019-Jun-15 11:28N 54°31' E 018°33'0 0.0
2019-Jun-15 10:58N 54°31' E 018°33'0 0.0
2019-Jun-15 10:28N 54°31' E 018°33'0 0.0
2019-Jun-15 09:58N 54°31' E 018°33'0 0.0
2019-Jun-15 09:30N 54°31' E 018°33'0 0.0
2019-Jun-15 09:00N 54°31' E 018°33'0 0.0
2019-Jun-15 08:30N 54°31' E 018°33'0 0.0
2019-Jun-15 08:00N 54°31' E 018°33'0 0.0
2019-Jun-15 07:24N 54°31' E 018°33'0 0.0
2019-Jun-15 06:59N 54°31' E 018°33'0 0.0
2019-Jun-15 06:29N 54°31' E 018°33'0 0.0
2019-Jun-15 05:59N 54°31' E 018°33'0 0.0
2019-Jun-15 05:26N 54°31' E 018°33'0 0.0
2019-Jun-15 04:58N 54°31' E 018°33'0 0.0
2019-Jun-15 04:25N 54°31' E 018°33'0 0.0
2019-Jun-15 03:58N 54°31' E 018°33'0 0.0
2019-Jun-15 03:28N 54°31' E 018°33'0 0.0
2019-Jun-15 02:58N 54°31' E 018°33'0 0.0
2019-Jun-15 02:30N 54°31' E 018°33'0 0.0
2019-Jun-15 02:00N 54°31' E 018°33'0 0.0
2019-Jun-15 01:27N 54°31' E 018°33'0 0.0
2019-Jun-15 01:00N 54°31' E 018°33'0 0.0
2019-Jun-15 00:29N 54°31' E 018°33'0 0.0
2019-Jun-14 23:53N 54°31' E 018°33'0 0.0
2019-Jun-14 23:29N 54°31' E 018°33'0 0.0
2019-Jun-14 22:59N 54°31' E 018°33'0 0.0
2019-Jun-14 22:29N 54°31' E 018°33'0 0.0
2019-Jun-14 21:58N 54°31' E 018°33'0 0.0
2019-Jun-14 21:28N 54°31' E 018°33'0 0.0
2019-Jun-14 20:58N 54°31' E 018°33'0 0.0
2019-Jun-14 20:28N 54°31' E 018°33'0 0.0
2019-Jun-14 19:58N 54°31' E 018°33'0 0.0
2019-Jun-14 19:27N 54°31' E 018°33'0 0.0
2019-Jun-14 18:57N 54°31' E 018°33'0 0.0
2019-Jun-14 18:27N 54°31' E 018°33'0 0.0
2019-Jun-14 18:00N 54°31' E 018°33'0 0.0
2019-Jun-14 17:29N 54°31' E 018°33'0 0.0
2019-Jun-14 16:59N 54°31' E 018°33'0 0.0
2019-Jun-14 16:29N 54°31' E 018°33'0 0.0
2019-Jun-14 15:59N 54°31' E 018°33'0 0.0
2019-Jun-14 15:29N 54°31' E 018°33'0 0.0
2019-Jun-14 14:58N 54°31' E 018°33'0 0.0
2019-Jun-14 14:28N 54°31' E 018°33'0 0.0
2019-Jun-14 13:58N 54°31' E 018°33'0 0.0
2019-Jun-14 13:28N 54°31' E 018°33'0 0.0
2019-Jun-14 12:58N 54°31' E 018°33'0 0.0
2019-Jun-14 12:30N 54°31' E 018°33'0 0.0
2019-Jun-14 12:00N 54°31' E 018°33'0 0.0
2019-Jun-14 11:30N 54°31' E 018°33'0 0.0
2019-Jun-14 11:00N 54°31' E 018°33'0 0.0
2019-Jun-14 10:29N 54°31' E 018°33'0 0.0
2019-Jun-14 10:00N 54°31' E 018°33'0 0.0
2019-Jun-14 09:30N 54°31' E 018°33'0 0.0
2019-Jun-14 09:00N 54°31' E 018°33'0 0.0
2019-Jun-14 08:30N 54°31' E 018°33'0 0.0
2019-Jun-14 08:00N 54°31' E 018°33'0 0.0
2019-Jun-14 07:30N 54°31' E 018°33'0 0.0
2019-Jun-14 07:00N 54°31' E 018°33'0 0.0
2019-Jun-14 06:30N 54°31' E 018°33'0 0.0
2019-Jun-14 06:00N 54°31' E 018°33'0 0.0
2019-Jun-14 05:30N 54°31' E 018°33'0 0.0
2019-Jun-14 05:00N 54°31' E 018°33'0 0.0
2019-Jun-14 04:30N 54°31' E 018°33'0 0.0
2019-Jun-14 04:00N 54°31' E 018°33'0 0.0
2019-Jun-14 03:30N 54°31' E 018°33'0 0.0
2019-Jun-14 03:00N 54°31' E 018°33'0 0.0
2019-Jun-14 02:30N 54°31' E 018°33'0 0.0
2019-Jun-14 02:00N 54°31' E 018°33'0 0.0
2019-Jun-14 01:30N 54°31' E 018°33'0 0.0
2019-Jun-14 01:00N 54°31' E 018°33'0 0.0
2019-Jun-14 00:30N 54°31' E 018°33'0 0.0
2019-Jun-14 00:00N 54°31' E 018°33'0 0.0
2019-Jun-13 23:30N 54°31' E 018°33'0 0.0
2019-Jun-13 23:00N 54°31' E 018°33'0 0.0
2019-Jun-13 22:30N 54°31' E 018°33'0 0.0
2019-Jun-13 22:00N 54°31' E 018°33'0 0.0
2019-Jun-13 21:30N 54°31' E 018°33'0 0.0
2019-Jun-13 21:00N 54°31' E 018°33'0 0.0
2019-Jun-13 20:30N 54°31' E 018°33'0 0.0
2019-Jun-13 20:00N 54°31' E 018°33'0 0.0
2019-Jun-13 19:30N 54°31' E 018°33'0 0.0
2019-Jun-13 19:00N 54°31' E 018°33'0 0.0
2019-Jun-13 18:30N 54°31' E 018°33'0 0.0
2019-Jun-13 18:00N 54°31' E 018°33'0 0.0
2019-Jun-13 17:30N 54°31' E 018°33'0 0.0
2019-Jun-13 17:00N 54°31' E 018°33'0 0.0
2019-Jun-13 16:30N 54°31' E 018°33'0 0.0
2019-Jun-13 16:00N 54°31' E 018°33'0 0.0
2019-Jun-13 15:30N 54°31' E 018°33'0 0.0
2019-Jun-13 15:00N 54°31' E 018°33'0 0.0
2019-Jun-13 14:30N 54°31' E 018°33'0 0.0
2019-Jun-13 14:00N 54°31' E 018°33'0 0.0
2019-Jun-13 13:30N 54°31' E 018°33'0 0.0
2019-Jun-13 13:00N 54°31' E 018°33'0 0.0
2019-Jun-13 12:30N 54°31' E 018°33'0 0.0
2019-Jun-13 12:00N 54°31' E 018°33'0 0.0
2019-Jun-13 11:30N 54°31' E 018°33'0 0.0
2019-Jun-13 11:00N 54°31' E 018°33'0 0.0
2019-Jun-13 10:30N 54°31' E 018°33'0 0.0
2019-Jun-13 10:00N 54°31' E 018°33'0 0.0
2019-Jun-13 09:30N 54°31' E 018°33'0 0.0
2019-Jun-13 09:00N 54°31' E 018°33'0 0.0
2019-Jun-13 08:30N 54°31' E 018°33'0 0.0
2019-Jun-13 08:00N 54°31' E 018°33'0 0.0
2019-Jun-13 07:30N 54°31' E 018°33'0 0.0
2019-Jun-13 07:00N 54°31' E 018°33'0 0.0
2019-Jun-13 06:30N 54°31' E 018°33'0 0.0
2019-Jun-13 06:00N 54°31' E 018°33'0 0.0
2019-Jun-13 05:30N 54°31' E 018°33'0 0.0
2019-Jun-13 05:00N 54°31' E 018°33'0 0.0
2019-Jun-13 04:30N 54°31' E 018°33'0 0.0
2019-Jun-13 04:00N 54°31' E 018°33'0 0.0
2019-Jun-13 03:30N 54°31' E 018°33'0 0.0
2019-Jun-13 03:00N 54°31' E 018°33'0 0.0
2019-Jun-13 02:30N 54°31' E 018°33'0 0.0
2019-Jun-13 02:00N 54°31' E 018°33'0 0.0
2019-Jun-13 01:30N 54°31' E 018°33'0 0.0
2019-Jun-13 01:00N 54°31' E 018°33'0 0.0
2019-Jun-13 00:30N 54°31' E 018°33'0 0.0
2019-Jun-13 00:00N 54°31' E 018°33'0 0.0
2019-Jun-12 23:30N 54°31' E 018°33'0 0.0
2019-Jun-12 23:00N 54°31' E 018°33'0 0.0
2019-Jun-12 22:30N 54°31' E 018°33'0 0.0
2019-Jun-12 22:00N 54°31' E 018°33'0 0.0
2019-Jun-12 21:30N 54°31' E 018°33'0 0.0
2019-Jun-12 21:00N 54°31' E 018°33'0 0.0
2019-Jun-12 20:30N 54°31' E 018°33'0 0.0
2019-Jun-12 20:00N 54°31' E 018°33'0 0.0
2019-Jun-12 19:30N 54°31' E 018°33'0 0.0
2019-Jun-12 19:00N 54°31' E 018°33'0 0.0
2019-Jun-12 18:30N 54°31' E 018°33'0 0.0
2019-Jun-12 18:00N 54°31' E 018°33'0 0.0
2019-Jun-12 17:30N 54°31' E 018°33'0 0.0
2019-Jun-12 17:00N 54°31' E 018°33'0 0.0
2019-Jun-12 16:30N 54°31' E 018°33'0 0.0
2019-Jun-12 16:00N 54°31' E 018°33'0 0.0
2019-Jun-12 15:30N 54°31' E 018°33'0 0.0
2019-Jun-12 15:00N 54°31' E 018°33'0 0.0
2019-Jun-12 14:30N 54°31' E 018°33'0 0.0
2019-Jun-12 14:00N 54°31' E 018°33'0 0.0
2019-Jun-12 13:30N 54°31' E 018°33'0 0.0
2019-Jun-12 13:00N 54°31' E 018°33'0 0.0
2019-Jun-12 12:30N 54°31' E 018°33'0 0.0
2019-Jun-12 12:00N 54°31' E 018°33'0 0.0
2019-Jun-12 11:30N 54°31' E 018°33'0 0.0
2019-Jun-12 11:00N 54°31' E 018°33'0 0.0
2019-Jun-12 10:30N 54°31' E 018°33'0 0.0
2019-Jun-12 10:00N 54°31' E 018°33'0 0.1
2019-Jun-12 09:30N 54°31' E 018°33'0 0.1
2019-Jun-12 09:00N 54°31' E 018°33'0 0.0
2019-Jun-12 08:30N 54°31' E 018°33'0 0.0
2019-Jun-12 08:00N 54°31' E 018°33'0 0.0
2019-Jun-12 07:30N 54°31' E 018°33'0 0.0
2019-Jun-12 07:00N 54°31' E 018°33'0 0.0
2019-Jun-12 06:30N 54°31' E 018°33'0 0.0
2019-Jun-12 06:00N 54°31' E 018°33'0 0.0
2019-Jun-12 05:30N 54°31' E 018°33'0 0.0
2019-Jun-12 05:00N 54°31' E 018°33'0 0.0
2019-Jun-12 04:30N 54°31' E 018°33'0 0.0
2019-Jun-12 04:00N 54°31' E 018°33'0 0.0
2019-Jun-12 03:30N 54°31' E 018°33'0 0.0
2019-Jun-12 03:00N 54°31' E 018°33'0 0.0
2019-Jun-12 02:30N 54°31' E 018°33'0 0.0
2019-Jun-12 01:30N 54°31' E 018°33'0 0.0
2019-Jun-12 01:00N 54°31' E 018°33'0 0.0
2019-Jun-12 00:30N 54°31' E 018°33'0 0.0
2019-Jun-12 00:00N 54°31' E 018°33'0 0.0
2019-Jun-11 23:30N 54°31' E 018°33'0 0.0
2019-Jun-11 23:00N 54°31' E 018°33'0 0.0
2019-Jun-11 22:30N 54°31' E 018°33'0 0.0
2019-Jun-11 22:00N 54°31' E 018°33'0 0.0
2019-Jun-11 21:30N 54°31' E 018°33'0 0.0
2019-Jun-11 21:00N 54°31' E 018°33'0 0.0
2019-Jun-11 20:30N 54°31' E 018°33'0 0.0
2019-Jun-11 20:00N 54°31' E 018°33'0 0.0
2019-Jun-11 19:30N 54°31' E 018°33'0 0.0
2019-Jun-11 19:00N 54°31' E 018°33'0 0.0
2019-Jun-11 18:30N 54°31' E 018°33'0 0.0
2019-Jun-11 18:00N 54°31' E 018°33'0 0.0
2019-Jun-11 17:30N 54°31' E 018°33'0 0.0
2019-Jun-11 17:00N 54°31' E 018°33'0 0.0
2019-Jun-11 16:30N 54°31' E 018°33'0 0.0
2019-Jun-11 16:00N 54°31' E 018°33'0 0.0
2019-Jun-11 15:30N 54°31' E 018°33'0 0.0
2019-Jun-11 15:00N 54°31' E 018°33'0 0.0
2019-Jun-11 14:30N 54°31' E 018°33'0 0.0
2019-Jun-11 14:00N 54°31' E 018°33'0 0.0
2019-Jun-11 13:30N 54°31' E 018°33'0 0.0
2019-Jun-11 13:00N 54°31' E 018°33'0 0.0
2019-Jun-11 12:30N 54°31' E 018°33'0 0.0
2019-Jun-11 12:00N 54°31' E 018°33'0 0.0
2019-Jun-11 11:30N 54°31' E 018°33'0 0.0
2019-Jun-11 11:00N 54°31' E 018°33'0 0.0
2019-Jun-11 10:30N 54°31' E 018°33'0 0.0
2019-Jun-11 10:00N 54°31' E 018°33'0 0.0
2019-Jun-11 09:30N 54°31' E 018°33'0 0.0
2019-Jun-11 09:00N 54°31' E 018°33'0 0.0
2019-Jun-11 08:30N 54°31' E 018°33'0 0.0
2019-Jun-11 08:00N 54°31' E 018°33'0 0.0
2019-Jun-11 07:30N 54°31' E 018°33'0 0.0
2019-Jun-11 07:00N 54°31' E 018°33'0 0.0
2019-Jun-11 06:30N 54°31' E 018°33'0 0.0
2019-Jun-11 06:00N 54°31' E 018°33'0 0.0
2019-Jun-11 05:30N 54°31' E 018°33'0 0.0
2019-Jun-11 05:00N 54°31' E 018°33'0 0.0
2019-Jun-11 04:30N 54°31' E 018°33'0 0.0
2019-Jun-11 04:00N 54°31' E 018°33'0 0.0
2019-Jun-11 03:30N 54°31' E 018°33'0 0.0
2019-Jun-11 03:00N 54°31' E 018°33'0 0.0
2019-Jun-11 02:30N 54°31' E 018°33'0 0.0
2019-Jun-11 02:00N 54°31' E 018°33'0 0.0
2019-Jun-11 01:30N 54°31' E 018°33'0 0.0
2019-Jun-11 01:00N 54°31' E 018°33'0 0.0
2019-Jun-11 00:30N 54°31' E 018°33'0 0.0
2019-Jun-11 00:00N 54°31' E 018°33'0 0.0
2019-Jun-10 23:30N 54°31' E 018°33'0 0.0
2019-Jun-10 23:00N 54°31' E 018°33'0 0.0
2019-Jun-10 22:30N 54°31' E 018°33'0 0.0
2019-Jun-10 22:00N 54°31' E 018°33'0 0.0
2019-Jun-10 21:30N 54°31' E 018°33'0 0.0
2019-Jun-10 21:00N 54°31' E 018°33'0 0.0
2019-Jun-10 20:30N 54°31' E 018°33'0 0.0
2019-Jun-10 20:00N 54°31' E 018°33'0 0.0
2019-Jun-10 19:30N 54°31' E 018°33'0 0.0
2019-Jun-10 19:00N 54°31' E 018°33'0 0.0
2019-Jun-10 18:30N 54°31' E 018°33'0 0.0
2019-Jun-10 18:00N 54°31' E 018°33'0 0.0
2019-Jun-10 17:30N 54°31' E 018°33'0 0.0
2019-Jun-10 17:00N 54°31' E 018°33'0 0.0
2019-Jun-10 16:30N 54°31' E 018°33'0 0.0
2019-Jun-10 16:00N 54°31' E 018°33'0 0.0
2019-Jun-10 15:30N 54°31' E 018°33'0 0.0
2019-Jun-10 15:00N 54°31' E 018°33'0 0.0
2019-Jun-10 14:30N 54°31' E 018°33'0 0.0
2019-Jun-10 14:00N 54°31' E 018°33'0 0.0
2019-Jun-10 13:30N 54°31' E 018°33'0 0.0
2019-Jun-10 13:00N 54°31' E 018°33'0 0.0
2019-Jun-10 12:30N 54°31' E 018°33'0 0.0
2019-Jun-10 12:00N 54°31' E 018°33'0 0.0
2019-Jun-10 11:30N 54°31' E 018°33'0 0.0
2019-Jun-10 11:00N 54°31' E 018°33'0 0.0
2019-Jun-10 10:30N 54°31' E 018°33'0 0.0
2019-Jun-10 10:00N 54°31' E 018°33'0 0.0
2019-Jun-10 09:30N 54°31' E 018°33'0 0.0
2019-Jun-10 09:00N 54°31' E 018°33'0 0.0
2019-Jun-10 08:30N 54°31' E 018°33'0 0.0
2019-Jun-10 08:00N 54°31' E 018°33'0 0.0
2019-Jun-10 07:30N 54°31' E 018°33'0 0.0
2019-Jun-10 07:00N 54°31' E 018°33'0 0.0
2019-Jun-10 06:30N 54°31' E 018°33'0 0.0
2019-Jun-10 06:00N 54°31' E 018°33'0 0.0
2019-Jun-10 05:30N 54°31' E 018°33'0 0.0
2019-Jun-10 05:00N 54°31' E 018°33'0 0.0
2019-Jun-10 04:30N 54°31' E 018°33'0 0.0
2019-Jun-10 04:00N 54°31' E 018°33'0 0.0
2019-Jun-10 03:30N 54°31' E 018°33'0 0.0
2019-Jun-10 03:00N 54°31' E 018°33'0 0.0
2019-Jun-10 02:30N 54°31' E 018°33'0 0.0
2019-Jun-10 02:00N 54°31' E 018°33'0 0.0
2019-Jun-10 01:30N 54°31' E 018°33'0 0.0
2019-Jun-10 01:00N 54°31' E 018°33'0 0.0
2019-Jun-10 00:30N 54°31' E 018°33'0 0.0
2019-Jun-10 00:00N 54°31' E 018°33'0 0.0
2019-Jun-09 23:30N 54°31' E 018°33'0 0.0
2019-Jun-09 23:00N 54°31' E 018°33'0 0.0
2019-Jun-09 22:30N 54°31' E 018°33'0 0.1
2019-Jun-09 22:00N 54°31' E 018°33'0 0.1
2019-Jun-09 21:30N 54°31' E 018°33'0 0.1
2019-Jun-09 21:00N 54°31' E 018°33'0 0.1
2019-Jun-09 20:30N 54°31' E 018°33'0 0.0
2019-Jun-09 20:00N 54°31' E 018°33'0 0.0
2019-Jun-09 19:30N 54°31' E 018°33'0 0.0
2019-Jun-09 19:00N 54°31' E 018°33'0 0.0
2019-Jun-09 18:30N 54°31' E 018°33'0 0.0
2019-Jun-09 18:00N 54°31' E 018°33'0 0.0
2019-Jun-09 17:30N 54°31' E 018°33'0 0.0
2019-Jun-09 17:00N 54°31' E 018°33'0 0.0
2019-Jun-09 16:30N 54°31' E 018°33'0 0.0
2019-Jun-09 16:00N 54°31' E 018°33'0 0.0
2019-Jun-09 15:30N 54°31' E 018°33'0 0.0
2019-Jun-09 15:00N 54°31' E 018°33'0 0.0
2019-Jun-09 14:30N 54°31' E 018°33'0 0.0
2019-Jun-09 14:00N 54°31' E 018°33'0 0.0
2019-Jun-09 13:30N 54°31' E 018°33'0 0.0
2019-Jun-09 13:00N 54°31' E 018°33'0 0.0
2019-Jun-09 12:30N 54°31' E 018°33'0 0.0
2019-Jun-09 12:00N 54°31' E 018°33'0 0.0
2019-Jun-09 11:30N 54°31' E 018°33'0 0.0
2019-Jun-09 11:00N 54°31' E 018°33'0 0.0
2019-Jun-09 10:30N 54°31' E 018°33'0 0.0
2019-Jun-09 10:00N 54°31' E 018°33'0 0.1
2019-Jun-09 09:30N 54°31' E 018°33'0 0.1
2019-Jun-09 09:00N 54°31' E 018°33'0 0.0
2019-Jun-09 08:30N 54°31' E 018°33'0 0.0
2019-Jun-09 08:00N 54°31' E 018°33'0 0.0
2019-Jun-09 07:30N 54°31' E 018°33'0 0.0
2019-Jun-09 07:00N 54°31' E 018°33'0 0.0
2019-Jun-09 06:30N 54°31' E 018°33'0 0.0
2019-Jun-09 06:00N 54°31' E 018°33'0 0.0
2019-Jun-09 05:30N 54°31' E 018°33'0 0.3
2019-Jun-09 05:00N 54°31' E 018°33'2 2.0
2019-Jun-09 04:00N 54°30' E 018°36'0 0.3
2019-Jun-09 03:30N 54°30' E 018°36'0 0.3
2019-Jun-09 03:00N 54°30' E 018°36'0 0.2
2019-Jun-09 02:30N 54°30' E 018°36'1 1.4
2019-Jun-09 02:00N 54°30' E 018°37'0 0.4
2019-Jun-09 01:30N 54°30' E 018°37'0 0.3
2019-Jun-09 01:00N 54°30' E 018°36'0 0.3
2019-Jun-09 00:30N 54°30' E 018°36'0 0.3
2019-Jun-09 00:00N 54°30' E 018°36'2 5.0
2019-Jun-08 23:30N 54°30' E 018°40'3 6.7
2019-Jun-08 23:00N 54°29' E 018°46'4 7.3
2019-Jun-08 22:30N 54°29' E 018°52'4 7.7
2019-Jun-08 22:00N 54°26' E 018°57'4 7.5
2019-Jun-08 21:30N 54°26' E 019°03'4 7.6
2019-Jun-08 21:00N 54°25' E 019°10'3 6.7
2019-Jun-08 20:30N 54°25' E 019°15'3 5.6
2019-Jun-08 20:00N 54°25' E 019°20'3 5.5
2019-Jun-08 19:30N 54°24' E 019°25'1 1.8
2019-Jun-08 19:00N 54°24' E 019°26'3 6.3
2019-Jun-08 18:30N 54°24' E 019°21'4 7.7
2019-Jun-08 18:00N 54°24' E 019°14'4 7.7
2019-Jun-08 17:30N 54°23' E 019°08'4 7.9
2019-Jun-08 17:00N 54°23' E 019°01'2 4.1
2019-Jun-08 16:31N 54°23' E 018°57'4 8.0
2019-Jun-08 16:00N 54°26' E 019°02'4 8.5
2019-Jun-08 15:30N 54°29' E 019°07'1 1.1
2019-Jun-08 14:58N 54°30' E 019°07'0 0.0
2019-Jun-08 14:28N 54°30' E 019°07'0 0.1
2019-Jun-08 13:58N 54°30' E 019°07'0 0.0
2019-Jun-08 13:30N 54°30' E 019°07'0 0.2
2019-Jun-08 13:00N 54°30' E 019°07'0 0.0
2019-Jun-08 12:30N 54°30' E 019°07'1 1.1
2019-Jun-08 12:00N 54°30' E 019°07'4 7.4
2019-Jun-08 11:30N 54°34' E 019°11'4 7.3
2019-Jun-08 11:00N 54°37' E 019°14'3 6.2
2019-Jun-08 10:30N 54°39' E 019°17'0 0.3
2019-Jun-08 10:00N 54°39' E 019°17'0 0.3
2019-Jun-08 09:30N 54°39' E 019°17'0 0.1
2019-Jun-08 09:00N 54°39' E 019°18'4 7.8
2019-Jun-08 08:29N 54°43' E 019°18'4 7.9
2019-Jun-08 08:00N 54°47' E 019°18'3 5.7
2019-Jun-08 07:28N 54°50' E 019°18'0 0.0
2019-Jun-08 06:13N 54°50' E 019°18'0 0.0
2019-Jun-08 03:42N 54°50' E 019°18'0 0.0
2019-Jun-08 03:27N 54°50' E 019°18'0 0.0
2019-Jun-08 02:56N 54°50' E 019°18'0 0.0
2019-Jun-08 02:29N 54°50' E 019°18'0 0.0
2019-Jun-08 01:44N 54°50' E 019°18'0 0.0
2019-Jun-08 01:14N 54°50' E 019°18'0 0.0
2019-Jun-08 00:58N 54°50' E 019°18'0 0.0
2019-Jun-08 00:26N 54°50' E 019°18'0 0.0
2019-Jun-08 00:00N 54°50' E 019°18'0 0.0
2019-Jun-07 23:30N 54°50' E 019°18'0 0.0
2019-Jun-07 23:00N 54°50' E 019°18'0 0.0
2019-Jun-07 22:30N 54°50' E 019°18'0 0.0
2019-Jun-07 22:00N 54°50' E 019°18'0 0.0
2019-Jun-07 21:25N 54°50' E 019°18'0 0.0
2019-Jun-07 21:00N 54°50' E 019°18'0 0.0
2019-Jun-07 20:30N 54°50' E 019°18'0 0.4
2019-Jun-07 20:00N 54°50' E 019°18'4 7.8
2019-Jun-07 19:30N 54°54' E 019°16'13 7.7
2019-Jun-07 17:53N 55°06' E 019°10'3 7.7
2019-Jun-07 17:29N 55°09' E 019°09'5 7.5
2019-Jun-07 16:48N 55°14' E 019°06'7 6.1
2019-Jun-07 15:36N 55°21' E 019°03'31 3.2
2019-Jun-07 06:06N 55°22' E 018°09'1 7.7
2019-Jun-07 05:56N 55°21' E 018°07'3 1.1
2019-Jun-07 03:12N 55°23' E 018°03'1 6.3
2019-Jun-07 03:00N 55°24' E 018°03'1 0.5
2019-Jun-07 01:53N 55°24' E 018°04'1 0.5
2019-Jun-07 00:19N 55°24' E 018°06'  
Track history (hours):
 
Tides and Currents Weather Stations Pressure Air Temp Water Temp Dewpoint Dewpoint Depression Visibility Wind Speed Wind Dir Waves Ship Positions

Oceanographic research ship Baltica (Poland)

Detailed information on ship capabilities available from University of Delaware's Ocean Information Center.

Last reported at 2019-Jun-19 21:00 UTC. Time now 2019-Jun-19 21:05 UTC.
Position N 55°38' E 015°30'.

Length 41 m; beam 9 m.

Type: Fishing. MMSI: 261061000.

Date/timePositionNaut miles runAvg speedWind from/ knotsBaromVisibWave heightAir tempDewpointWater temp
2019-Jun-19 21:00N 55°38' E 015°30'0 0.6
2019-Jun-19 20:30N 55°37' E 015°31'4 8.1
2019-Jun-19 20:00N 55°38' E 015°38'4 8.0
2019-Jun-19 19:30N 55°38' E 015°45'0 0.3
2019-Jun-19 19:01N 55°38' E 015°45'2 3.2
2019-Jun-19 18:30N 55°38' E 015°48'4 7.5
2019-Jun-19 18:00N 55°38' E 015°54'4 7.4
2019-Jun-19 17:30N 55°38' E 016°01'0 0.6
2019-Jun-19 17:00N 55°38' E 016°00'0 0.7
2019-Jun-19 16:31N 55°37' E 016°00'3 6.8
2019-Jun-19 16:00N 55°41' E 016°00'4 7.2
2019-Jun-19 15:30N 55°44' E 016°00'3 5.7
2019-Jun-19 15:00N 55°47' E 016°00'0 0.4
2019-Jun-19 14:30N 55°47' E 016°00'4 7.3
2019-Jun-19 14:00N 55°47' E 016°07'4 7.4
2019-Jun-19 13:31N 55°47' E 016°13'1 1.9
2019-Jun-19 13:00N 55°48' E 016°15'0 0.9
2019-Jun-19 12:30N 55°47' E 016°16'4 7.4
2019-Jun-19 12:00N 55°48' E 016°22'4 7.5
2019-Jun-19 11:30N 55°48' E 016°29'1 1.1
2019-Jun-19 11:01N 55°48' E 016°30'1 1.0
2019-Jun-19 10:30N 55°47' E 016°30'4 7.4
2019-Jun-19 10:00N 55°43' E 016°30'4 7.4
2019-Jun-19 09:30N 55°40' E 016°30'2 4.4
2019-Jun-19 09:01N 55°38' E 016°30'1 1.6
2019-Jun-19 08:30N 55°37' E 016°29'4 7.9
2019-Jun-19 08:00N 55°37' E 016°22'3 6.1
2019-Jun-19 07:30N 55°37' E 016°16'1 1.6
2019-Jun-19 07:00N 55°38' E 016°15'3 6.3
2019-Jun-19 06:30N 55°34' E 016°16'4 7.9
2019-Jun-19 06:00N 55°30' E 016°16'4 7.5
2019-Jun-19 05:30N 55°27' E 016°17'1 2.8
2019-Jun-19 05:00N 55°28' E 016°15'1 1.3
2019-Jun-19 04:30N 55°27' E 016°16'4 7.4
2019-Jun-19 04:00N 55°27' E 016°23'3 6.7
2019-Jun-19 03:30N 55°27' E 016°29'1 1.6
2019-Jun-19 03:00N 55°28' E 016°30'6 6.0
2019-Jun-19 02:00N 55°22' E 016°30'4 7.6
2019-Jun-19 01:30N 55°18' E 016°30'1 2.3
2019-Jun-19 01:00N 55°17' E 016°30'0 0.7
2019-Jun-19 00:31N 55°17' E 016°30'3 6.8
2019-Jun-19 00:00N 55°16' E 016°36'4 7.6
2019-Jun-18 23:30N 55°15' E 016°42'4 7.2
2019-Jun-18 22:59N 55°13' E 016°48'0 0.9
2019-Jun-18 22:30N 55°14' E 016°48'0 0.5
2019-Jun-18 22:00N 55°14' E 016°48'4 5.2
2019-Jun-18 21:15N 55°14' E 016°55'3 4.3
2019-Jun-18 20:33N 55°14' E 017°00'0 0.7
2019-Jun-18 20:18N 55°14' E 016°60'0 0.0
2019-Jun-18 19:25N 55°14' E 016°60'6 5.3
2019-Jun-18 18:16N 55°14' E 017°10'2 7.9
2019-Jun-18 18:00N 55°14' E 017°14'3 6.3
2019-Jun-18 17:30N 55°14' E 017°20'0 0.4
2019-Jun-18 17:00N 55°14' E 017°20'2 4.9
2019-Jun-18 16:30N 55°14' E 017°24'4 7.5
2019-Jun-18 16:01N 55°15' E 017°31'2 4.7
2019-Jun-18 15:30N 55°15' E 017°35'0 0.8
2019-Jun-18 15:01N 55°15' E 017°35'3 6.3
2019-Jun-18 14:30N 55°17' E 017°39'2 3.1
2019-Jun-18 13:59N 55°19' E 017°40'0 0.9
2019-Jun-18 13:30N 55°19' E 017°41'5 7.2
2019-Jun-18 12:49N 55°19' E 017°50'4 7.4
2019-Jun-18 12:20N 55°20' E 017°56'2 6.3
2019-Jun-18 12:00N 55°20' E 017°59'0 0.6
2019-Jun-18 11:29N 55°20' E 017°60'22 3.7
2019-Jun-18 05:41N 55°36' E 018°25'1 3.3
2019-Jun-18 05:30N 55°36' E 018°26'3 1.6
2019-Jun-18 03:32N 55°34' E 018°30'0 7.8
2019-Jun-18 03:30N 55°34' E 018°30'20 4.6
2019-Jun-17 23:11N 55°15' E 018°40'1 7.4
2019-Jun-17 23:00N 55°14' E 018°40'3 6.8
2019-Jun-17 22:30N 55°10' E 018°40'0 0.3
2019-Jun-17 21:44N 55°10' E 018°40'0 0.6
2019-Jun-17 21:37N 55°10' E 018°40'1 4.8
2019-Jun-17 21:21N 55°10' E 018°42'3 7.4
2019-Jun-17 21:00N 55°09' E 018°47'4 7.4
2019-Jun-17 20:30N 55°08' E 018°53'7 7.4
2019-Jun-17 19:35N 55°07' E 019°04'40 2.0
2019-Jun-16 23:23N 54°31' E 018°33'0 0.0
2019-Jun-16 22:58N 54°31' E 018°33'0 0.0
2019-Jun-16 22:28N 54°31' E 018°33'0 0.0
2019-Jun-16 21:58N 54°31' E 018°33'0 0.0
2019-Jun-16 21:28N 54°31' E 018°33'0 0.0
2019-Jun-16 21:00N 54°31' E 018°33'0 0.0
2019-Jun-16 20:30N 54°31' E 018°33'0 0.0
2019-Jun-16 20:00N 54°31' E 018°33'0 0.0
2019-Jun-16 19:30N 54°31' E 018°33'0 0.0
2019-Jun-16 19:00N 54°31' E 018°33'0 0.0
2019-Jun-16 18:26N 54°31' E 018°33'0 0.0
2019-Jun-16 17:59N 54°31' E 018°33'0 0.0
2019-Jun-16 17:29N 54°31' E 018°33'0 0.0
2019-Jun-16 16:59N 54°31' E 018°33'0 0.0
2019-Jun-16 16:29N 54°31' E 018°33'0 0.1
2019-Jun-16 15:58N 54°31' E 018°33'0 0.1
2019-Jun-16 15:28N 54°31' E 018°33'0 0.0
2019-Jun-16 14:58N 54°31' E 018°33'0 0.0
2019-Jun-16 14:28N 54°31' E 018°33'0 0.0
2019-Jun-16 13:57N 54°31' E 018°33'0 0.0
2019-Jun-16 13:27N 54°31' E 018°33'0 0.0
2019-Jun-16 12:57N 54°31' E 018°33'0 0.0
2019-Jun-16 12:27N 54°31' E 018°33'0 0.0
2019-Jun-16 11:57N 54°31' E 018°33'0 0.0
2019-Jun-16 11:29N 54°31' E 018°33'0 0.0
2019-Jun-16 10:59N 54°31' E 018°33'0 0.0
2019-Jun-16 10:26N 54°31' E 018°33'0 0.0
2019-Jun-16 09:59N 54°31' E 018°33'0 0.0
2019-Jun-16 09:26N 54°31' E 018°33'0 0.1
2019-Jun-16 08:59N 54°31' E 018°33'0 0.1
2019-Jun-16 08:28N 54°31' E 018°33'0 0.0
2019-Jun-16 07:55N 54°31' E 018°33'0 0.0
2019-Jun-16 07:25N 54°31' E 018°33'0 0.1
2019-Jun-16 06:58N 54°31' E 018°33'0 0.1
2019-Jun-16 06:30N 54°31' E 018°33'0 0.0
2019-Jun-16 06:00N 54°31' E 018°33'0 0.0
2019-Jun-16 05:30N 54°31' E 018°33'0 0.0
2019-Jun-16 05:00N 54°31' E 018°33'0 0.0
2019-Jun-16 04:30N 54°31' E 018°33'0 0.0
2019-Jun-16 03:59N 54°31' E 018°33'0 0.0
2019-Jun-16 03:29N 54°31' E 018°33'0 0.0
2019-Jun-16 02:59N 54°31' E 018°33'0 0.0
2019-Jun-16 02:26N 54°31' E 018°33'0 0.0
2019-Jun-16 01:59N 54°31' E 018°33'0 0.0
2019-Jun-16 01:28N 54°31' E 018°33'0 0.0
2019-Jun-16 00:58N 54°31' E 018°33'0 0.0
2019-Jun-16 00:28N 54°31' E 018°33'0 0.0
2019-Jun-15 23:58N 54°31' E 018°33'0 0.0
2019-Jun-15 23:30N 54°31' E 018°33'0 0.0
2019-Jun-15 23:00N 54°31' E 018°33'0 0.0
2019-Jun-15 22:30N 54°31' E 018°33'0 0.0
2019-Jun-15 22:00N 54°31' E 018°33'0 0.0
2019-Jun-15 21:27N 54°31' E 018°33'0 0.0
2019-Jun-15 20:59N 54°31' E 018°33'0 0.1
2019-Jun-15 20:29N 54°31' E 018°33'0 0.1
2019-Jun-15 19:59N 54°31' E 018°33'0 0.0
2019-Jun-15 19:26N 54°31' E 018°33'0 0.0
2019-Jun-15 18:59N 54°31' E 018°33'0 0.0
2019-Jun-15 18:28N 54°31' E 018°33'0 0.0
2019-Jun-15 17:52N 54°31' E 018°33'0 0.0
2019-Jun-15 17:28N 54°31' E 018°33'0 0.0
2019-Jun-15 16:58N 54°31' E 018°33'0 0.0
2019-Jun-15 16:30N 54°31' E 018°33'0 0.0
2019-Jun-15 16:00N 54°31' E 018°33'0 0.0
2019-Jun-15 15:30N 54°31' E 018°33'0 0.0
2019-Jun-15 15:00N 54°31' E 018°33'0 0.0
2019-Jun-15 14:30N 54°31' E 018°33'0 0.0
2019-Jun-15 13:59N 54°31' E 018°33'0 0.0
2019-Jun-15 13:29N 54°31' E 018°33'0 0.0
2019-Jun-15 12:59N 54°31' E 018°33'0 0.0
2019-Jun-15 12:29N 54°31' E 018°33'0 0.0
2019-Jun-15 11:58N 54°31' E 018°33'0 0.0
2019-Jun-15 11:28N 54°31' E 018°33'0 0.0
2019-Jun-15 10:58N 54°31' E 018°33'0 0.0
2019-Jun-15 10:28N 54°31' E 018°33'0 0.0
2019-Jun-15 09:58N 54°31' E 018°33'0 0.0
2019-Jun-15 09:30N 54°31' E 018°33'0 0.0
2019-Jun-15 09:00N 54°31' E 018°33'0 0.0
2019-Jun-15 08:30N 54°31' E 018°33'0 0.0
2019-Jun-15 08:00N 54°31' E 018°33'0 0.0
2019-Jun-15 07:24N 54°31' E 018°33'0 0.0
2019-Jun-15 06:59N 54°31' E 018°33'0 0.0
2019-Jun-15 06:29N 54°31' E 018°33'0 0.0
2019-Jun-15 05:59N 54°31' E 018°33'0 0.0
2019-Jun-15 05:26N 54°31' E 018°33'0 0.0
2019-Jun-15 04:58N 54°31' E 018°33'0 0.0
2019-Jun-15 04:25N 54°31' E 018°33'0 0.0
2019-Jun-15 03:58N 54°31' E 018°33'0 0.0
2019-Jun-15 03:28N 54°31' E 018°33'0 0.0
2019-Jun-15 02:58N 54°31' E 018°33'0 0.0
2019-Jun-15 02:30N 54°31' E 018°33'0 0.0
2019-Jun-15 02:00N 54°31' E 018°33'0 0.0
2019-Jun-15 01:27N 54°31' E 018°33'0 0.0
2019-Jun-15 01:00N 54°31' E 018°33'0 0.0
2019-Jun-15 00:29N 54°31' E 018°33'0 0.0
2019-Jun-14 23:53N 54°31' E 018°33'0 0.0
2019-Jun-14 23:29N 54°31' E 018°33'0 0.0
2019-Jun-14 22:59N 54°31' E 018°33'0 0.0
2019-Jun-14 22:29N 54°31' E 018°33'0 0.0
2019-Jun-14 21:58N 54°31' E 018°33'0 0.0
2019-Jun-14 21:28N 54°31' E 018°33'0 0.0
2019-Jun-14 20:58N 54°31' E 018°33'0 0.0
2019-Jun-14 20:28N 54°31' E 018°33'0 0.0
2019-Jun-14 19:58N 54°31' E 018°33'0 0.0
2019-Jun-14 19:27N 54°31' E 018°33'0 0.0
2019-Jun-14 18:57N 54°31' E 018°33'0 0.0
2019-Jun-14 18:27N 54°31' E 018°33'0 0.0
2019-Jun-14 18:00N 54°31' E 018°33'0 0.0
2019-Jun-14 17:29N 54°31' E 018°33'0 0.0
2019-Jun-14 16:59N 54°31' E 018°33'0 0.0
2019-Jun-14 16:29N 54°31' E 018°33'0 0.0
2019-Jun-14 15:59N 54°31' E 018°33'0 0.0
2019-Jun-14 15:29N 54°31' E 018°33'0 0.0
2019-Jun-14 14:58N 54°31' E 018°33'0 0.0
2019-Jun-14 14:28N 54°31' E 018°33'0 0.0
2019-Jun-14 13:58N 54°31' E 018°33'0 0.0
2019-Jun-14 13:28N 54°31' E 018°33'0 0.0
2019-Jun-14 12:58N 54°31' E 018°33'0 0.0
2019-Jun-14 12:30N 54°31' E 018°33'0 0.0
2019-Jun-14 12:00N 54°31' E 018°33'0 0.0
2019-Jun-14 11:30N 54°31' E 018°33'0 0.0
2019-Jun-14 11:00N 54°31' E 018°33'0 0.0
2019-Jun-14 10:29N 54°31' E 018°33'0 0.0
2019-Jun-14 10:00N 54°31' E 018°33'0 0.0
2019-Jun-14 09:30N 54°31' E 018°33'0 0.0
2019-Jun-14 09:00N 54°31' E 018°33'0 0.0
2019-Jun-14 08:30N 54°31' E 018°33'0 0.0
2019-Jun-14 08:00N 54°31' E 018°33'0 0.0
2019-Jun-14 07:30N 54°31' E 018°33'0 0.0
2019-Jun-14 07:00N 54°31' E 018°33'0 0.0
2019-Jun-14 06:30N 54°31' E 018°33'0 0.0
2019-Jun-14 06:00N 54°31' E 018°33'0 0.0
2019-Jun-14 05:30N 54°31' E 018°33'0 0.0
2019-Jun-14 05:00N 54°31' E 018°33'0 0.0
2019-Jun-14 04:30N 54°31' E 018°33'0 0.0
2019-Jun-14 04:00N 54°31' E 018°33'0 0.0
2019-Jun-14 03:30N 54°31' E 018°33'0 0.0
2019-Jun-14 03:00N 54°31' E 018°33'0 0.0
2019-Jun-14 02:30N 54°31' E 018°33'0 0.0
2019-Jun-14 02:00N 54°31' E 018°33'0 0.0
2019-Jun-14 01:30N 54°31' E 018°33'0 0.0
2019-Jun-14 01:00N 54°31' E 018°33'0 0.0
2019-Jun-14 00:30N 54°31' E 018°33'0 0.0
2019-Jun-14 00:00N 54°31' E 018°33'0 0.0
2019-Jun-13 23:30N 54°31' E 018°33'0 0.0
2019-Jun-13 23:00N 54°31' E 018°33'0 0.0
2019-Jun-13 22:30N 54°31' E 018°33'0 0.0
2019-Jun-13 22:00N 54°31' E 018°33'0 0.0
2019-Jun-13 21:30N 54°31' E 018°33'0 0.0
2019-Jun-13 21:00N 54°31' E 018°33'0 0.0
2019-Jun-13 20:30N 54°31' E 018°33'0 0.0
2019-Jun-13 20:00N 54°31' E 018°33'0 0.0
2019-Jun-13 19:30N 54°31' E 018°33'0 0.0
2019-Jun-13 19:00N 54°31' E 018°33'0 0.0
2019-Jun-13 18:30N 54°31' E 018°33'0 0.0
2019-Jun-13 18:00N 54°31' E 018°33'0 0.0
2019-Jun-13 17:30N 54°31' E 018°33'0 0.0
2019-Jun-13 17:00N 54°31' E 018°33'0 0.0
2019-Jun-13 16:30N 54°31' E 018°33'0 0.0
2019-Jun-13 16:00N 54°31' E 018°33'0 0.0
2019-Jun-13 15:30N 54°31' E 018°33'0 0.0
2019-Jun-13 15:00N 54°31' E 018°33'0 0.0
2019-Jun-13 14:30N 54°31' E 018°33'0 0.0
2019-Jun-13 14:00N 54°31' E 018°33'0 0.0
2019-Jun-13 13:30N 54°31' E 018°33'0 0.0
2019-Jun-13 13:00N 54°31' E 018°33'0 0.0
2019-Jun-13 12:30N 54°31' E 018°33'0 0.0
2019-Jun-13 12:00N 54°31' E 018°33'0 0.0
2019-Jun-13 11:30N 54°31' E 018°33'0 0.0
2019-Jun-13 11:00N 54°31' E 018°33'0 0.0
2019-Jun-13 10:30N 54°31' E 018°33'0 0.0
2019-Jun-13 10:00N 54°31' E 018°33'0 0.0
2019-Jun-13 09:30N 54°31' E 018°33'0 0.0
2019-Jun-13 09:00N 54°31' E 018°33'0 0.0
2019-Jun-13 08:30N 54°31' E 018°33'0 0.0
2019-Jun-13 08:00N 54°31' E 018°33'0 0.0
2019-Jun-13 07:30N 54°31' E 018°33'0 0.0
2019-Jun-13 07:00N 54°31' E 018°33'0 0.0
2019-Jun-13 06:30N 54°31' E 018°33'0 0.0
2019-Jun-13 06:00N 54°31' E 018°33'0 0.0
2019-Jun-13 05:30N 54°31' E 018°33'0 0.0
2019-Jun-13 05:00N 54°31' E 018°33'0 0.0
2019-Jun-13 04:30N 54°31' E 018°33'0 0.0
2019-Jun-13 04:00N 54°31' E 018°33'0 0.0
2019-Jun-13 03:30N 54°31' E 018°33'0 0.0
2019-Jun-13 03:00N 54°31' E 018°33'0 0.0
2019-Jun-13 02:30N 54°31' E 018°33'0 0.0
2019-Jun-13 02:00N 54°31' E 018°33'0 0.0
2019-Jun-13 01:30N 54°31' E 018°33'0 0.0
2019-Jun-13 01:00N 54°31' E 018°33'0 0.0
2019-Jun-13 00:30N 54°31' E 018°33'0 0.0
2019-Jun-13 00:00N 54°31' E 018°33'0 0.0
2019-Jun-12 23:30N 54°31' E 018°33'0 0.0
2019-Jun-12 23:00N 54°31' E 018°33'0 0.0
2019-Jun-12 22:30N 54°31' E 018°33'0 0.0
2019-Jun-12 22:00N 54°31' E 018°33'0 0.0
2019-Jun-12 21:30N 54°31' E 018°33'0 0.0
2019-Jun-12 21:00N 54°31' E 018°33'0 0.0
2019-Jun-12 20:30N 54°31' E 018°33'0 0.0
2019-Jun-12 20:00N 54°31' E 018°33'0 0.0
2019-Jun-12 19:30N 54°31' E 018°33'0 0.0
2019-Jun-12 19:00N 54°31' E 018°33'0 0.0
2019-Jun-12 18:30N 54°31' E 018°33'0 0.0
2019-Jun-12 18:00N 54°31' E 018°33'0 0.0
2019-Jun-12 17:30N 54°31' E 018°33'0 0.0
2019-Jun-12 17:00N 54°31' E 018°33'0 0.0
2019-Jun-12 16:30N 54°31' E 018°33'0 0.0
2019-Jun-12 16:00N 54°31' E 018°33'0 0.0
2019-Jun-12 15:30N 54°31' E 018°33'0 0.0
2019-Jun-12 15:00N 54°31' E 018°33'0 0.0
2019-Jun-12 14:30N 54°31' E 018°33'0 0.0
2019-Jun-12 14:00N 54°31' E 018°33'0 0.0
2019-Jun-12 13:30N 54°31' E 018°33'0 0.0
2019-Jun-12 13:00N 54°31' E 018°33'0 0.0
2019-Jun-12 12:30N 54°31' E 018°33'0 0.0
2019-Jun-12 12:00N 54°31' E 018°33'0 0.0
2019-Jun-12 11:30N 54°31' E 018°33'0 0.0
2019-Jun-12 11:00N 54°31' E 018°33'0 0.0
2019-Jun-12 10:30N 54°31' E 018°33'0 0.0
2019-Jun-12 10:00N 54°31' E 018°33'0 0.1
2019-Jun-12 09:30N 54°31' E 018°33'0 0.1
2019-Jun-12 09:00N 54°31' E 018°33'0 0.0
2019-Jun-12 08:30N 54°31' E 018°33'0 0.0
2019-Jun-12 08:00N 54°31' E 018°33'0 0.0
2019-Jun-12 07:30N 54°31' E 018°33'0 0.0
2019-Jun-12 07:00N 54°31' E 018°33'0 0.0
2019-Jun-12 06:30N 54°31' E 018°33'0 0.0
2019-Jun-12 06:00N 54°31' E 018°33'0 0.0
2019-Jun-12 05:30N 54°31' E 018°33'0 0.0
2019-Jun-12 05:00N 54°31' E 018°33'0 0.0
2019-Jun-12 04:30N 54°31' E 018°33'0 0.0
2019-Jun-12 04:00N 54°31' E 018°33'0 0.0
2019-Jun-12 03:30N 54°31' E 018°33'0 0.0
2019-Jun-12 03:00N 54°31' E 018°33'0 0.0
2019-Jun-12 02:30N 54°31' E 018°33'0 0.0
2019-Jun-12 01:30N 54°31' E 018°33'0 0.0
2019-Jun-12 01:00N 54°31' E 018°33'0 0.0
2019-Jun-12 00:30N 54°31' E 018°33'0 0.0
2019-Jun-12 00:00N 54°31' E 018°33'0 0.0
2019-Jun-11 23:30N 54°31' E 018°33'0 0.0
2019-Jun-11 23:00N 54°31' E 018°33'0 0.0
2019-Jun-11 22:30N 54°31' E 018°33'0 0.0
2019-Jun-11 22:00N 54°31' E 018°33'0 0.0
2019-Jun-11 21:30N 54°31' E 018°33'0 0.0
2019-Jun-11 21:00N 54°31' E 018°33'0 0.0
2019-Jun-11 20:30N 54°31' E 018°33'0 0.0
2019-Jun-11 20:00N 54°31' E 018°33'0 0.0
2019-Jun-11 19:30N 54°31' E 018°33'0 0.0
2019-Jun-11 19:00N 54°31' E 018°33'0 0.0
2019-Jun-11 18:30N 54°31' E 018°33'0 0.0
2019-Jun-11 18:00N 54°31' E 018°33'0 0.0
2019-Jun-11 17:30N 54°31' E 018°33'0 0.0
2019-Jun-11 17:00N 54°31' E 018°33'0 0.0
2019-Jun-11 16:30N 54°31' E 018°33'0 0.0
2019-Jun-11 16:00N 54°31' E 018°33'0 0.0
2019-Jun-11 15:30N 54°31' E 018°33'0 0.0
2019-Jun-11 15:00N 54°31' E 018°33'0 0.0
2019-Jun-11 14:30N 54°31' E 018°33'0 0.0
2019-Jun-11 14:00N 54°31' E 018°33'0 0.0
2019-Jun-11 13:30N 54°31' E 018°33'0 0.0
2019-Jun-11 13:00N 54°31' E 018°33'0 0.0
2019-Jun-11 12:30N 54°31' E 018°33'0 0.0
2019-Jun-11 12:00N 54°31' E 018°33'0 0.0
2019-Jun-11 11:30N 54°31' E 018°33'0 0.0
2019-Jun-11 11:00N 54°31' E 018°33'0 0.0
2019-Jun-11 10:30N 54°31' E 018°33'0 0.0
2019-Jun-11 10:00N 54°31' E 018°33'0 0.0
2019-Jun-11 09:30N 54°31' E 018°33'0 0.0
2019-Jun-11 09:00N 54°31' E 018°33'0 0.0
2019-Jun-11 08:30N 54°31' E 018°33'0 0.0
2019-Jun-11 08:00N 54°31' E 018°33'0 0.0
2019-Jun-11 07:30N 54°31' E 018°33'0 0.0
2019-Jun-11 07:00N 54°31' E 018°33'0 0.0
2019-Jun-11 06:30N 54°31' E 018°33'0 0.0
2019-Jun-11 06:00N 54°31' E 018°33'0 0.0
2019-Jun-11 05:30N 54°31' E 018°33'0 0.0
2019-Jun-11 05:00N 54°31' E 018°33'0 0.0
2019-Jun-11 04:30N 54°31' E 018°33'0 0.0
2019-Jun-11 04:00N 54°31' E 018°33'0 0.0
2019-Jun-11 03:30N 54°31' E 018°33'0 0.0
2019-Jun-11 03:00N 54°31' E 018°33'0 0.0
2019-Jun-11 02:30N 54°31' E 018°33'0 0.0
2019-Jun-11 02:00N 54°31' E 018°33'0 0.0
2019-Jun-11 01:30N 54°31' E 018°33'0 0.0
2019-Jun-11 01:00N 54°31' E 018°33'0 0.0
2019-Jun-11 00:30N 54°31' E 018°33'0 0.0
2019-Jun-11 00:00N 54°31' E 018°33'0 0.0
2019-Jun-10 23:30N 54°31' E 018°33'0 0.0
2019-Jun-10 23:00N 54°31' E 018°33'0 0.0
2019-Jun-10 22:30N 54°31' E 018°33'0 0.0
2019-Jun-10 22:00N 54°31' E 018°33'0 0.0
2019-Jun-10 21:30N 54°31' E 018°33'0 0.0
2019-Jun-10 21:00N 54°31' E 018°33'0 0.0
2019-Jun-10 20:30N 54°31' E 018°33'0 0.0
2019-Jun-10 20:00N 54°31' E 018°33'0 0.0
2019-Jun-10 19:30N 54°31' E 018°33'0 0.0
2019-Jun-10 19:00N 54°31' E 018°33'0 0.0
2019-Jun-10 18:30N 54°31' E 018°33'0 0.0
2019-Jun-10 18:00N 54°31' E 018°33'0 0.0
2019-Jun-10 17:30N 54°31' E 018°33'0 0.0
2019-Jun-10 17:00N 54°31' E 018°33'0 0.0
2019-Jun-10 16:30N 54°31' E 018°33'0 0.0
2019-Jun-10 16:00N 54°31' E 018°33'0 0.0
2019-Jun-10 15:30N 54°31' E 018°33'0 0.0
2019-Jun-10 15:00N 54°31' E 018°33'0 0.0
2019-Jun-10 14:30N 54°31' E 018°33'0 0.0
2019-Jun-10 14:00N 54°31' E 018°33'0 0.0
2019-Jun-10 13:30N 54°31' E 018°33'0 0.0
2019-Jun-10 13:00N 54°31' E 018°33'0 0.0
2019-Jun-10 12:30N 54°31' E 018°33'0 0.0
2019-Jun-10 12:00N 54°31' E 018°33'0 0.0
2019-Jun-10 11:30N 54°31' E 018°33'0 0.0
2019-Jun-10 11:00N 54°31' E 018°33'0 0.0
2019-Jun-10 10:30N 54°31' E 018°33'0 0.0
2019-Jun-10 10:00N 54°31' E 018°33'0 0.0
2019-Jun-10 09:30N 54°31' E 018°33'0 0.0
2019-Jun-10 09:00N 54°31' E 018°33'0 0.0
2019-Jun-10 08:30N 54°31' E 018°33'0 0.0
2019-Jun-10 08:00N 54°31' E 018°33'0 0.0
2019-Jun-10 07:30N 54°31' E 018°33'0 0.0
2019-Jun-10 07:00N 54°31' E 018°33'0 0.0
2019-Jun-10 06:30N 54°31' E 018°33'0 0.0
2019-Jun-10 06:00N 54°31' E 018°33'0 0.0
2019-Jun-10 05:30N 54°31' E 018°33'0 0.0
2019-Jun-10 05:00N 54°31' E 018°33'0 0.0
2019-Jun-10 04:30N 54°31' E 018°33'0 0.0
2019-Jun-10 04:00N 54°31' E 018°33'0 0.0
2019-Jun-10 03:30N 54°31' E 018°33'0 0.0
2019-Jun-10 03:00N 54°31' E 018°33'0 0.0
2019-Jun-10 02:30N 54°31' E 018°33'0 0.0
2019-Jun-10 02:00N 54°31' E 018°33'0 0.0
2019-Jun-10 01:30N 54°31' E 018°33'0 0.0
2019-Jun-10 01:00N 54°31' E 018°33'0 0.0
2019-Jun-10 00:30N 54°31' E 018°33'0 0.0
2019-Jun-10 00:00N 54°31' E 018°33'0 0.0
2019-Jun-09 23:30N 54°31' E 018°33'0 0.0
2019-Jun-09 23:00N 54°31' E 018°33'0 0.0
2019-Jun-09 22:30N 54°31' E 018°33'0 0.1
2019-Jun-09 22:00N 54°31' E 018°33'0 0.1
2019-Jun-09 21:30N 54°31' E 018°33'0 0.1
2019-Jun-09 21:00N 54°31' E 018°33'0 0.1
2019-Jun-09 20:30N 54°31' E 018°33'0 0.0
2019-Jun-09 20:00N 54°31' E 018°33'0 0.0
2019-Jun-09 19:30N 54°31' E 018°33'0 0.0
2019-Jun-09 19:00N 54°31' E 018°33'0 0.0
2019-Jun-09 18:30N 54°31' E 018°33'0 0.0
2019-Jun-09 18:00N 54°31' E 018°33'0 0.0
2019-Jun-09 17:30N 54°31' E 018°33'0 0.0
2019-Jun-09 17:00N 54°31' E 018°33'0 0.0
2019-Jun-09 16:30N 54°31' E 018°33'0 0.0
2019-Jun-09 16:00N 54°31' E 018°33'0 0.0
2019-Jun-09 15:30N 54°31' E 018°33'0 0.0
2019-Jun-09 15:00N 54°31' E 018°33'0 0.0
2019-Jun-09 14:30N 54°31' E 018°33'0 0.0
2019-Jun-09 14:00N 54°31' E 018°33'0 0.0
2019-Jun-09 13:30N 54°31' E 018°33'0 0.0
2019-Jun-09 13:00N 54°31' E 018°33'0 0.0
2019-Jun-09 12:30N 54°31' E 018°33'0 0.0
2019-Jun-09 12:00N 54°31' E 018°33'0 0.0
2019-Jun-09 11:30N 54°31' E 018°33'0 0.0
2019-Jun-09 11:00N 54°31' E 018°33'0 0.0
2019-Jun-09 10:30N 54°31' E 018°33'0 0.0
2019-Jun-09 10:00N 54°31' E 018°33'0 0.1
2019-Jun-09 09:30N 54°31' E 018°33'0 0.1
2019-Jun-09 09:00N 54°31' E 018°33'0 0.0
2019-Jun-09 08:30N 54°31' E 018°33'0 0.0
2019-Jun-09 08:00N 54°31' E 018°33'0 0.0
2019-Jun-09 07:30N 54°31' E 018°33'0 0.0
2019-Jun-09 07:00N 54°31' E 018°33'0 0.0
2019-Jun-09 06:30N 54°31' E 018°33'0 0.0
2019-Jun-09 06:00N 54°31' E 018°33'0 0.0
2019-Jun-09 05:30N 54°31' E 018°33'0 0.3
2019-Jun-09 05:00N 54°31' E 018°33'2 2.0
2019-Jun-09 04:00N 54°30' E 018°36'0 0.3
2019-Jun-09 03:30N 54°30' E 018°36'0 0.3
2019-Jun-09 03:00N 54°30' E 018°36'0 0.2
2019-Jun-09 02:30N 54°30' E 018°36'1 1.4
2019-Jun-09 02:00N 54°30' E 018°37'0 0.4
2019-Jun-09 01:30N 54°30' E 018°37'0 0.3
2019-Jun-09 01:00N 54°30' E 018°36'0 0.3
2019-Jun-09 00:30N 54°30' E 018°36'0 0.3
2019-Jun-09 00:00N 54°30' E 018°36'2 5.0
2019-Jun-08 23:30N 54°30' E 018°40'3 6.7
2019-Jun-08 23:00N 54°29' E 018°46'4 7.3
2019-Jun-08 22:30N 54°29' E 018°52'4 7.7
2019-Jun-08 22:00N 54°26' E 018°57'4 7.5
2019-Jun-08 21:30N 54°26' E 019°03'4 7.6
2019-Jun-08 21:00N 54°25' E 019°10'3 6.7
2019-Jun-08 20:30N 54°25' E 019°15'3 5.6
2019-Jun-08 20:00N 54°25' E 019°20'3 5.5
2019-Jun-08 19:30N 54°24' E 019°25'1 1.8
2019-Jun-08 19:00N 54°24' E 019°26'3 6.3
2019-Jun-08 18:30N 54°24' E 019°21'4 7.7
2019-Jun-08 18:00N 54°24' E 019°14'4 7.7
2019-Jun-08 17:30N 54°23' E 019°08'4 7.9
2019-Jun-08 17:00N 54°23' E 019°01'2 4.1
2019-Jun-08 16:31N 54°23' E 018°57'4 8.0
2019-Jun-08 16:00N 54°26' E 019°02'4 8.5
2019-Jun-08 15:30N 54°29' E 019°07'1 1.1
2019-Jun-08 14:58N 54°30' E 019°07'0 0.0
2019-Jun-08 14:28N 54°30' E 019°07'0 0.1
2019-Jun-08 13:58N 54°30' E 019°07'0 0.0
2019-Jun-08 13:30N 54°30' E 019°07'0 0.2
2019-Jun-08 13:00N 54°30' E 019°07'0 0.0
2019-Jun-08 12:30N 54°30' E 019°07'1 1.1
2019-Jun-08 12:00N 54°30' E 019°07'4 7.4
2019-Jun-08 11:30N 54°34' E 019°11'4 7.3
2019-Jun-08 11:00N 54°37' E 019°14'3 6.2
2019-Jun-08 10:30N 54°39' E 019°17'0 0.3
2019-Jun-08 10:00N 54°39' E 019°17'0 0.3
2019-Jun-08 09:30N 54°39' E 019°17'0 0.1
2019-Jun-08 09:00N 54°39' E 019°18'4 7.8
2019-Jun-08 08:29N 54°43' E 019°18'4 7.9
2019-Jun-08 08:00N 54°47' E 019°18'3 5.7
2019-Jun-08 07:28N 54°50' E 019°18'0 0.0
2019-Jun-08 06:13N 54°50' E 019°18'0 0.0
2019-Jun-08 03:42N 54°50' E 019°18'0 0.0
2019-Jun-08 03:27N 54°50' E 019°18'0 0.0
2019-Jun-08 02:56N 54°50' E 019°18'0 0.0
2019-Jun-08 02:29N 54°50' E 019°18'0 0.0
2019-Jun-08 01:44N 54°50' E 019°18'0 0.0
2019-Jun-08 01:14N 54°50' E 019°18'0 0.0
2019-Jun-08 00:58N 54°50' E 019°18'0 0.0
2019-Jun-08 00:26N 54°50' E 019°18'0 0.0
2019-Jun-08 00:00N 54°50' E 019°18'0 0.0
2019-Jun-07 23:30N 54°50' E 019°18'0 0.0
2019-Jun-07 23:00N 54°50' E 019°18'0 0.0
2019-Jun-07 22:30N 54°50' E 019°18'0 0.0
2019-Jun-07 22:00N 54°50' E 019°18'0 0.0
2019-Jun-07 21:25N 54°50' E 019°18'0 0.0
2019-Jun-07 21:00N 54°50' E 019°18'0 0.0
2019-Jun-07 20:30N 54°50' E 019°18'0 0.4
2019-Jun-07 20:00N 54°50' E 019°18'4 7.8
2019-Jun-07 19:30N 54°54' E 019°16'13 7.7
2019-Jun-07 17:53N 55°06' E 019°10'3 7.7
2019-Jun-07 17:29N 55°09' E 019°09'5 7.5
2019-Jun-07 16:48N 55°14' E 019°06'7 6.1
2019-Jun-07 15:36N 55°21' E 019°03'31 3.2
2019-Jun-07 06:06N 55°22' E 018°09'1 7.7
2019-Jun-07 05:56N 55°21' E 018°07'3 1.1
2019-Jun-07 03:12N 55°23' E 018°03'1 6.3
2019-Jun-07 03:00N 55°24' E 018°03'1 0.5
2019-Jun-07 01:53N 55°24' E 018°04'1 0.5
2019-Jun-07 00:19N 55°24' E 018°06'  

Dump ship's entire track history